Los Teques, Venezuela
Current Conditions -  °F | °C
As of 9:00 PM on Friday 31 Oct 2014 (Local Time) from SVMI Reporting Station
Broken Clouds Broken Clouds  
Wind Chill: 82°   Ceiling: 1600
Heat Index: 91°   Visibility: 6mi
Dew Point: 77°   Wind: 2mph
Humidity: 84%   Direction: 50°NE
Pressure: 29.85"   Gusts: NA
Location:  10.42°N, 67.02°W
Report Text: SVMI 010100Z 05002KT 9999 BKN016 28/25 Q1011 NOSIG
Loading
Personal Weather Stations






























Interactive Weather Map
Tropical Storm Tracking
New forecast layout! Learn more

10-Day Weather Forecast

Advertisements
Track Severe Weather on mobile